sensor_id;sensor_type;location;lat;lon;timestamp;P1;durP1;ratioP1;P2;durP2;ratioP2
56860;SDS011;42744;51.094;3.490;2023-04-01T00:01:00;14.87;;;3.47;;
56860;SDS011;42744;51.094;3.490;2023-04-01T00:03:27;10.67;;;3.37;;
56860;SDS011;42744;51.094;3.490;2023-04-01T00:05:55;9.73;;;2.83;;
56860;SDS011;42744;51.094;3.490;2023-04-01T00:08:21;10.90;;;2.93;;
56860;SDS011;42744;51.094;3.490;2023-04-01T00:10:48;12.77;;;3.23;;
56860;SDS011;42744;51.094;3.490;2023-04-01T00:13:14;10.33;;;2.63;;
56860;SDS011;42744;51.094;3.490;2023-04-01T00:15:41;14.87;;;3.50;;
56860;SDS011;42744;51.094;3.490;2023-04-01T00:18:08;14.20;;;3.10;;
56860;SDS011;42744;51.094;3.490;2023-04-01T00:20:34;13.23;;;3.67;;
56860;SDS011;42744;51.094;3.490;2023-04-01T00:23:00;12.90;;;3.17;;
56860;SDS011;42744;51.094;3.490;2023-04-01T00:25:26;9.73;;;2.20;;
56860;SDS011;42744;51.094;3.490;2023-04-01T00:27:52;6.57;;;2.70;;
56860;SDS011;42744;51.094;3.490;2023-04-01T00:30:18;8.13;;;2.50;;
56860;SDS011;42744;51.094;3.490;2023-04-01T00:32:45;7.57;;;2.10;;
56860;SDS011;42744;51.094;3.490;2023-04-01T00:35:11;8.33;;;1.97;;
56860;SDS011;42744;51.094;3.490;2023-04-01T00:37:37;8.40;;;2.13;;
56860;SDS011;42744;51.094;3.490;2023-04-01T00:40:07;5.73;;;2.00;;
56860;SDS011;42744;51.094;3.490;2023-04-01T00:42:46;8.40;;;2.47;;
56860;SDS011;42744;51.094;3.490;2023-04-01T00:45:26;10.57;;;2.50;;
56860;SDS011;42744;51.094;3.490;2023-04-01T00:47:52;10.83;;;3.00;;
56860;SDS011;42744;51.094;3.490;2023-04-01T00:50:19;10.50;;;3.00;;
56860;SDS011;42744;51.094;3.490;2023-04-01T00:52:49;7.97;;;2.90;;
56860;SDS011;42744;51.094;3.490;2023-04-01T00:55:15;9.23;;;3.33;;
56860;SDS011;42744;51.094;3.490;2023-04-01T00:57:45;10.97;;;3.53;;
56860;SDS011;42744;51.094;3.490;2023-04-01T01:00:12;13.27;;;4.20;;
56860;SDS011;42744;51.094;3.490;2023-04-01T01:02:41;11.90;;;3.50;;
56860;SDS011;42744;51.094;3.490;2023-04-01T01:05:12;16.33;;;4.10;;
56860;SDS011;42744;51.094;3.490;2023-04-01T01:10:35;21.70;;;4.33;;
56860;SDS011;42744;51.094;3.490;2023-04-01T01:13:08;16.70;;;4.27;;
56860;SDS011;42744;51.094;3.490;2023-04-01T01:15:46;12.47;;;3.33;;
56860;SDS011;42744;51.094;3.490;2023-04-01T01:18:40;10.20;;;3.07;;
56860;SDS011;42744;51.094;3.490;2023-04-01T01:24:07;12.73;;;3.23;;
56860;SDS011;42744;51.094;3.490;2023-04-01T01:26:57;13.40;;;3.27;;
56860;SDS011;42744;51.094;3.490;2023-04-01T01:32:11;14.33;;;3.07;;
56860;SDS011;42744;51.094;3.490;2023-04-01T01:34:49;11.53;;;3.27;;
56860;SDS011;42744;51.094;3.490;2023-04-01T01:37:35;6.90;;;2.70;;
56860;SDS011;42744;51.094;3.490;2023-04-01T01:40:05;8.23;;;2.87;;
56860;SDS011;42744;51.094;3.490;2023-04-01T01:42:36;8.20;;;3.00;;
56860;SDS011;42744;51.094;3.490;2023-04-01T01:45:05;12.97;;;3.10;;
56860;SDS011;42744;51.094;3.490;2023-04-01T01:47:33;10.33;;;2.93;;
56860;SDS011;42744;51.094;3.490;2023-04-01T01:50:04;10.37;;;2.93;;
56860;SDS011;42744;51.094;3.490;2023-04-01T01:52:32;8.73;;;2.23;;
56860;SDS011;42744;51.094;3.490;2023-04-01T01:54:58;11.27;;;2.70;;
56860;SDS011;42744;51.094;3.490;2023-04-01T01:57:26;13.17;;;3.40;;
56860;SDS011;42744;51.094;3.490;2023-04-01T02:00:07;13.73;;;3.03;;
56860;SDS011;42744;51.094;3.490;2023-04-01T02:02:44;12.97;;;3.53;;
56860;SDS011;42744;51.094;3.490;2023-04-01T02:05:14;9.63;;;3.10;;
56860;SDS011;42744;51.094;3.490;2023-04-01T02:07:43;15.13;;;3.50;;
56860;SDS011;42744;51.094;3.490;2023-04-01T02:10:16;12.00;;;3.83;;
56860;SDS011;42744;51.094;3.490;2023-04-01T02:12:45;19.07;;;4.37;;
56860;SDS011;42744;51.094;3.490;2023-04-01T02:15:13;18.67;;;4.33;;
56860;SDS011;42744;51.094;3.490;2023-04-01T02:17:42;13.47;;;4.37;;
56860;SDS011;42744;51.094;3.490;2023-04-01T02:20:17;16.53;;;4.43;;
56860;SDS011;42744;51.094;3.490;2023-04-01T02:22:51;15.47;;;4.27;;
56860;SDS011;42744;51.094;3.490;2023-04-01T02:25:21;13.33;;;4.20;;
56860;SDS011;42744;51.094;3.490;2023-04-01T02:27:58;13.00;;;3.70;;
56860;SDS011;42744;51.094;3.490;2023-04-01T02:30:26;14.70;;;4.33;;
56860;SDS011;42744;51.094;3.490;2023-04-01T02:32:55;10.33;;;3.63;;
56860;SDS011;42744;51.094;3.490;2023-04-01T02:35:24;9.77;;;3.93;;
56860;SDS011;42744;51.094;3.490;2023-04-01T02:37:51;12.73;;;3.77;;
56860;SDS011;42744;51.094;3.490;2023-04-01T02:40:19;8.20;;;3.20;;
56860;SDS011;42744;51.094;3.490;2023-04-01T02:42:45;12.20;;;3.83;;
56860;SDS011;42744;51.094;3.490;2023-04-01T02:45:11;8.47;;;3.33;;
56860;SDS011;42744;51.094;3.490;2023-04-01T02:47:38;10.23;;;3.43;;
56860;SDS011;42744;51.094;3.490;2023-04-01T02:50:07;8.90;;;3.43;;
56860;SDS011;42744;51.094;3.490;2023-04-01T02:52:34;8.27;;;3.20;;
56860;SDS011;42744;51.094;3.490;2023-04-01T02:55:00;13.90;;;3.50;;
56860;SDS011;42744;51.094;3.490;2023-04-01T02:57:27;10.03;;;4.00;;
56860;SDS011;42744;51.094;3.490;2023-04-01T02:59:54;9.57;;;3.83;;
56860;SDS011;42744;51.094;3.490;2023-04-01T03:02:20;8.80;;;3.47;;
56860;SDS011;42744;51.094;3.490;2023-04-01T03:04:46;4.80;;;3.07;;
56860;SDS011;42744;51.094;3.490;2023-04-01T03:07:12;7.37;;;2.80;;
56860;SDS011;42744;51.094;3.490;2023-04-01T03:09:39;6.93;;;2.83;;
56860;SDS011;42744;51.094;3.490;2023-04-01T03:12:05;7.57;;;3.20;;
56860;SDS011;42744;51.094;3.490;2023-04-01T03:14:32;4.40;;;2.40;;
56860;SDS011;42744;51.094;3.490;2023-04-01T03:16:58;4.83;;;2.43;;
56860;SDS011;42744;51.094;3.490;2023-04-01T03:19:25;5.10;;;2.60;;
56860;SDS011;42744;51.094;3.490;2023-04-01T03:21:51;6.33;;;2.57;;
56860;SDS011;42744;51.094;3.490;2023-04-01T03:24:18;5.63;;;2.43;;
56860;SDS011;42744;51.094;3.490;2023-04-01T03:26:46;9.63;;;3.10;;
56860;SDS011;42744;51.094;3.490;2023-04-01T03:29:12;5.07;;;2.83;;
56860;SDS011;42744;51.094;3.490;2023-04-01T03:31:41;6.50;;;2.37;;
56860;SDS011;42744;51.094;3.490;2023-04-01T03:34:07;4.23;;;2.00;;
56860;SDS011;42744;51.094;3.490;2023-04-01T03:36:34;7.20;;;2.00;;
56860;SDS011;42744;51.094;3.490;2023-04-01T03:39:00;4.70;;;2.20;;
56860;SDS011;42744;51.094;3.490;2023-04-01T03:41:28;3.63;;;2.27;;
56860;SDS011;42744;51.094;3.490;2023-04-01T03:43:54;5.90;;;2.07;;
56860;SDS011;42744;51.094;3.490;2023-04-01T03:46:20;3.53;;;1.93;;
56860;SDS011;42744;51.094;3.490;2023-04-01T03:48:48;5.00;;;2.03;;
56860;SDS011;42744;51.094;3.490;2023-04-01T03:51:14;2.70;;;2.30;;
56860;SDS011;42744;51.094;3.490;2023-04-01T03:53:40;7.53;;;2.80;;
56860;SDS011;42744;51.094;3.490;2023-04-01T03:56:07;4.10;;;2.30;;
56860;SDS011;42744;51.094;3.490;2023-04-01T03:58:34;5.07;;;2.30;;
56860;SDS011;42744;51.094;3.490;2023-04-01T04:01:01;7.03;;;2.17;;
56860;SDS011;42744;51.094;3.490;2023-04-01T04:03:28;3.63;;;1.67;;
56860;SDS011;42744;51.094;3.490;2023-04-01T04:05:54;3.20;;;1.70;;
56860;SDS011;42744;51.094;3.490;2023-04-01T04:08:21;4.00;;;2.80;;
56860;SDS011;42744;51.094;3.490;2023-04-01T04:10:54;6.50;;;3.00;;
56860;SDS011;42744;51.094;3.490;2023-04-01T04:13:21;6.40;;;3.20;;
56860;SDS011;42744;51.094;3.490;2023-04-01T04:15:48;11.07;;;4.50;;
56860;SDS011;42744;51.094;3.490;2023-04-01T04:18:14;10.60;;;4.30;;
56860;SDS011;42744;51.094;3.490;2023-04-01T04:20:44;9.57;;;4.00;;
56860;SDS011;42744;51.094;3.490;2023-04-01T04:23:14;8.97;;;4.17;;
56860;SDS011;42744;51.094;3.490;2023-04-01T04:25:40;9.03;;;3.77;;
56860;SDS011;42744;51.094;3.490;2023-04-01T04:28:06;10.20;;;4.27;;
56860;SDS011;42744;51.094;3.490;2023-04-01T04:30:33;10.63;;;4.50;;
56860;SDS011;42744;51.094;3.490;2023-04-01T04:33:00;9.67;;;4.83;;
56860;SDS011;42744;51.094;3.490;2023-04-01T04:35:26;8.73;;;4.60;;
56860;SDS011;42744;51.094;3.490;2023-04-01T04:37:53;7.43;;;4.07;;
56860;SDS011;42744;51.094;3.490;2023-04-01T04:40:19;7.40;;;4.07;;
56860;SDS011;42744;51.094;3.490;2023-04-01T04:42:46;8.70;;;4.37;;
56860;SDS011;42744;51.094;3.490;2023-04-01T04:45:13;11.13;;;4.60;;
56860;SDS011;42744;51.094;3.490;2023-04-01T04:47:40;7.93;;;3.83;;
56860;SDS011;42744;51.094;3.490;2023-04-01T04:50:07;6.97;;;3.97;;
56860;SDS011;42744;51.094;3.490;2023-04-01T04:52:48;8.40;;;3.87;;
56860;SDS011;42744;51.094;3.490;2023-04-01T04:55:14;7.97;;;3.53;;
56860;SDS011;42744;51.094;3.490;2023-04-01T04:57:41;7.67;;;3.67;;
56860;SDS011;42744;51.094;3.490;2023-04-01T05:00:08;10.90;;;3.53;;
56860;SDS011;42744;51.094;3.490;2023-04-01T05:02:37;10.40;;;3.77;;
56860;SDS011;42744;51.094;3.490;2023-04-01T05:05:03;9.63;;;3.73;;
56860;SDS011;42744;51.094;3.490;2023-04-01T05:07:30;6.17;;;3.63;;
56860;SDS011;42744;51.094;3.490;2023-04-01T05:09:56;8.53;;;3.27;;
56860;SDS011;42744;51.094;3.490;2023-04-01T05:12:22;12.00;;;3.80;;
56860;SDS011;42744;51.094;3.490;2023-04-01T05:14:50;9.33;;;3.30;;
56860;SDS011;42744;51.094;3.490;2023-04-01T05:17:16;8.97;;;3.67;;
56860;SDS011;42744;51.094;3.490;2023-04-01T05:19:42;6.47;;;3.50;;
56860;SDS011;42744;51.094;3.490;2023-04-01T05:22:08;6.90;;;3.77;;
56860;SDS011;42744;51.094;3.490;2023-04-01T05:24:34;9.23;;;3.97;;
56860;SDS011;42744;51.094;3.490;2023-04-01T05:27:00;6.97;;;3.03;;
56860;SDS011;42744;51.094;3.490;2023-04-01T05:29:27;5.87;;;3.17;;
56860;SDS011;42744;51.094;3.490;2023-04-01T05:31:54;7.07;;;3.10;;
56860;SDS011;42744;51.094;3.490;2023-04-01T05:34:20;9.03;;;3.03;;
56860;SDS011;42744;51.094;3.490;2023-04-01T05:36:46;5.63;;;2.50;;
56860;SDS011;42744;51.094;3.490;2023-04-01T05:39:12;4.70;;;2.10;;
56860;SDS011;42744;51.094;3.490;2023-04-01T05:41:39;3.10;;;1.80;;
56860;SDS011;42744;51.094;3.490;2023-04-01T05:44:06;4.47;;;2.00;;
56860;SDS011;42744;51.094;3.490;2023-04-01T05:46:36;3.70;;;1.97;;
56860;SDS011;42744;51.094;3.490;2023-04-01T05:49:03;2.33;;;1.77;;
56860;SDS011;42744;51.094;3.490;2023-04-01T05:51:29;3.47;;;1.80;;
56860;SDS011;42744;51.094;3.490;2023-04-01T05:53:55;2.87;;;1.90;;
56860;SDS011;42744;51.094;3.490;2023-04-01T05:56:22;1.93;;;1.50;;
56860;SDS011;42744;51.094;3.490;2023-04-01T05:58:50;1.93;;;1.30;;
56860;SDS011;42744;51.094;3.490;2023-04-01T06:01:17;4.97;;;1.53;;
56860;SDS011;42744;51.094;3.490;2023-04-01T06:03:44;3.47;;;1.57;;
56860;SDS011;42744;51.094;3.490;2023-04-01T06:06:23;1.70;;;1.50;;
56860;SDS011;42744;51.094;3.490;2023-04-01T06:08:52;5.20;;;1.70;;
56860;SDS011;42744;51.094;3.490;2023-04-01T06:20:39;5.07;;;1.07;;
56860;SDS011;42744;51.094;3.490;2023-04-01T06:30:54;2.20;;;0.87;;
56860;SDS011;42744;51.094;3.490;2023-04-01T06:42:17;1.70;;;0.93;;
56860;SDS011;42744;51.094;3.490;2023-04-01T06:45:12;2.37;;;1.23;;
56860;SDS011;42744;51.094;3.490;2023-04-01T06:51:04;1.97;;;1.00;;
56860;SDS011;42744;51.094;3.490;2023-04-01T06:54:03;1.90;;;0.77;;
56860;SDS011;42744;51.094;3.490;2023-04-01T06:56:41;2.27;;;0.67;;
56860;SDS011;42744;51.094;3.490;2023-04-01T06:59:22;2.57;;;0.50;;
56860;SDS011;42744;51.094;3.490;2023-04-01T07:01:55;0.83;;;0.73;;
56860;SDS011;42744;51.094;3.490;2023-04-01T07:04:33;1.10;;;0.80;;
56860;SDS011;42744;51.094;3.490;2023-04-01T07:07:12;2.73;;;0.97;;
56860;SDS011;42744;51.094;3.490;2023-04-01T07:09:57;2.83;;;1.30;;
56860;SDS011;42744;51.094;3.490;2023-04-01T07:15:20;2.73;;;1.00;;
56860;SDS011;42744;51.094;3.490;2023-04-01T07:17:55;2.40;;;1.03;;
56860;SDS011;42744;51.094;3.490;2023-04-01T07:20:29;2.03;;;0.80;;
56860;SDS011;42744;51.094;3.490;2023-04-01T07:23:02;1.97;;;1.03;;
56860;SDS011;42744;51.094;3.490;2023-04-01T07:25:38;5.90;;;1.03;;
56860;SDS011;42744;51.094;3.490;2023-04-01T07:28:12;1.93;;;1.00;;
56860;SDS011;42744;51.094;3.490;2023-04-01T07:30:58;4.70;;;1.10;;
56860;SDS011;42744;51.094;3.490;2023-04-01T07:33:39;2.53;;;0.90;;
56860;SDS011;42744;51.094;3.490;2023-04-01T07:52:24;2.03;;;1.33;;
56860;SDS011;42744;51.094;3.490;2023-04-01T07:55:14;1.53;;;0.80;;
56860;SDS011;42744;51.094;3.490;2023-04-01T08:00:25;5.23;;;1.50;;
56860;SDS011;42744;51.094;3.490;2023-04-01T08:08:45;5.03;;;1.90;;
56860;SDS011;42744;51.094;3.490;2023-04-01T08:20:30;5.57;;;2.00;;
56860;SDS011;42744;51.094;3.490;2023-04-01T08:31:57;5.63;;;1.90;;
56860;SDS011;42744;51.094;3.490;2023-04-01T08:34:37;5.87;;;1.47;;
56860;SDS011;42744;51.094;3.490;2023-04-01T08:37:15;3.87;;;1.60;;
56860;SDS011;42744;51.094;3.490;2023-04-01T08:39:56;5.20;;;1.63;;
56860;SDS011;42744;51.094;3.490;2023-04-01T08:48:06;5.80;;;1.40;;
56860;SDS011;42744;51.094;3.490;2023-04-01T09:15:42;2.10;;;0.80;;
56860;SDS011;42744;51.094;3.490;2023-04-01T09:21:19;3.03;;;0.97;;
56860;SDS011;42744;51.094;3.490;2023-04-01T09:37:34;3.93;;;0.73;;
56860;SDS011;42744;51.094;3.490;2023-04-01T09:43:34;1.50;;;1.03;;
56860;SDS011;42744;51.094;3.490;2023-04-01T09:49:15;1.97;;;0.67;;
56860;SDS011;42744;51.094;3.490;2023-04-01T10:01:05;3.83;;;1.10;;
56860;SDS011;42744;51.094;3.490;2023-04-01T10:10:07;4.20;;;1.47;;
56860;SDS011;42744;51.094;3.490;2023-04-01T10:21:46;6.10;;;1.67;;
56860;SDS011;42744;51.094;3.490;2023-04-01T10:24:53;2.30;;;1.13;;
56860;SDS011;42744;51.094;3.490;2023-04-01T10:53:05;2.33;;;0.90;;
56860;SDS011;42744;51.094;3.490;2023-04-01T11:10:30;1.20;;;0.60;;
56860;SDS011;42744;51.094;3.490;2023-04-01T11:13:37;3.13;;;0.97;;
56860;SDS011;42744;51.094;3.490;2023-04-01T11:21:59;2.57;;;0.90;;
56860;SDS011;42744;51.094;3.490;2023-04-01T11:25:00;3.97;;;1.20;;
56860;SDS011;42744;51.094;3.490;2023-04-01T11:30:10;2.90;;;0.80;;
56860;SDS011;42744;51.094;3.490;2023-04-01T11:32:57;3.90;;;1.30;;
56860;SDS011;42744;51.094;3.490;2023-04-01T11:59:57;3.33;;;1.40;;
56860;SDS011;42744;51.094;3.490;2023-04-01T12:28:06;2.10;;;1.17;;
56860;SDS011;42744;51.094;3.490;2023-04-01T12:30:50;2.97;;;1.17;;
56860;SDS011;42744;51.094;3.490;2023-04-01T12:44:31;4.70;;;0.60;;
56860;SDS011;42744;51.094;3.490;2023-04-01T12:52:37;3.50;;;0.90;;
56860;SDS011;42744;51.094;3.490;2023-04-01T13:00:38;2.87;;;0.60;;
56860;SDS011;42744;51.094;3.490;2023-04-01T13:08:48;3.60;;;0.93;;
56860;SDS011;42744;51.094;3.490;2023-04-01T13:17:10;3.20;;;0.90;;
56860;SDS011;42744;51.094;3.490;2023-04-01T13:23:01;1.77;;;0.50;;
56860;SDS011;42744;51.094;3.490;2023-04-01T13:25:44;1.63;;;0.63;;
56860;SDS011;42744;51.094;3.490;2023-04-01T13:28:14;2.97;;;0.60;;
56860;SDS011;42744;51.094;3.490;2023-04-01T13:45:21;5.33;;;0.80;;
56860;SDS011;42744;51.094;3.490;2023-04-01T13:50:53;4.17;;;0.60;;
56860;SDS011;42744;51.094;3.490;2023-04-01T14:02:57;5.20;;;0.93;;
56860;SDS011;42744;51.094;3.490;2023-04-01T14:08:20;4.50;;;0.80;;
56860;SDS011;42744;51.094;3.490;2023-04-01T14:11:10;4.80;;;1.00;;
56860;SDS011;42744;51.094;3.490;2023-04-01T14:14:20;1.97;;;0.70;;
56860;SDS011;42744;51.094;3.490;2023-04-01T14:22:20;4.43;;;1.00;;
56860;SDS011;42744;51.094;3.490;2023-04-01T14:31:00;4.80;;;1.13;;
56860;SDS011;42744;51.094;3.490;2023-04-01T14:42:18;3.00;;;0.90;;
56860;SDS011;42744;51.094;3.490;2023-04-01T14:45:29;3.57;;;1.10;;
56860;SDS011;42744;51.094;3.490;2023-04-01T14:50:53;4.57;;;1.30;;
56860;SDS011;42744;51.094;3.490;2023-04-01T14:55:53;3.70;;;0.80;;
56860;SDS011;42744;51.094;3.490;2023-04-01T14:58:22;2.70;;;0.80;;
56860;SDS011;42744;51.094;3.490;2023-04-01T15:10:17;2.27;;;1.50;;
56860;SDS011;42744;51.094;3.490;2023-04-01T15:24:44;3.87;;;1.17;;
56860;SDS011;42744;51.094;3.490;2023-04-01T15:41:20;5.30;;;0.87;;
56860;SDS011;42744;51.094;3.490;2023-04-01T15:44:01;3.23;;;0.83;;
56860;SDS011;42744;51.094;3.490;2023-04-01T15:49:16;1.80;;;0.73;;
56860;SDS011;42744;51.094;3.490;2023-04-01T15:51:56;5.87;;;0.90;;
56860;SDS011;42744;51.094;3.490;2023-04-01T15:57:34;3.43;;;1.43;;
56860;SDS011;42744;51.094;3.490;2023-04-01T16:00:19;3.80;;;1.40;;
56860;SDS011;42744;51.094;3.490;2023-04-01T16:06:01;3.67;;;1.30;;
56860;SDS011;42744;51.094;3.490;2023-04-01T16:09:02;3.63;;;1.00;;
56860;SDS011;42744;51.094;3.490;2023-04-01T16:14:23;3.50;;;1.00;;
56860;SDS011;42744;51.094;3.490;2023-04-01T16:17:14;5.53;;;1.50;;
56860;SDS011;42744;51.094;3.490;2023-04-01T16:22:39;1.50;;;0.80;;
56860;SDS011;42744;51.094;3.490;2023-04-01T16:26:01;5.83;;;1.63;;
56860;SDS011;42744;51.094;3.490;2023-04-01T16:31:15;7.73;;;1.63;;
56860;SDS011;42744;51.094;3.490;2023-04-01T16:33:59;3.20;;;1.50;;
56860;SDS011;42744;51.094;3.490;2023-04-01T16:36:52;5.53;;;1.80;;
56860;SDS011;42744;51.094;3.490;2023-04-01T16:47:40;3.07;;;1.10;;
56860;SDS011;42744;51.094;3.490;2023-04-01T16:51:20;3.17;;;1.43;;
56860;SDS011;42744;51.094;3.490;2023-04-01T16:53:25;1.80;;;0.90;;
56860;SDS011;42744;51.094;3.490;2023-04-01T17:06:46;2.43;;;1.50;;
56860;SDS011;42744;51.094;3.490;2023-04-01T17:09:25;4.93;;;1.50;;
56860;SDS011;42744;51.094;3.490;2023-04-01T17:12:17;2.80;;;1.00;;
56860;SDS011;42744;51.094;3.490;2023-04-01T17:15:17;2.13;;;1.10;;
56860;SDS011;42744;51.094;3.490;2023-04-01T17:20:40;2.33;;;0.80;;
56860;SDS011;42744;51.094;3.490;2023-04-01T17:23:24;2.20;;;0.80;;
56860;SDS011;42744;51.094;3.490;2023-04-01T17:28:34;2.40;;;0.83;;
56860;SDS011;42744;51.094;3.490;2023-04-01T17:31:25;1.50;;;1.00;;
56860;SDS011;42744;51.094;3.490;2023-04-01T17:45:04;4.93;;;1.50;;
56860;SDS011;42744;51.094;3.490;2023-04-01T18:02:17;8.73;;;2.90;;
56860;SDS011;42744;51.094;3.490;2023-04-01T18:07:46;7.13;;;2.97;;
56860;SDS011;42744;51.094;3.490;2023-04-01T18:11:34;7.17;;;2.67;;
56860;SDS011;42744;51.094;3.490;2023-04-01T18:25:36;6.93;;;3.57;;
56860;SDS011;42744;51.094;3.490;2023-04-01T18:30:55;14.10;;;4.53;;
56860;SDS011;42744;51.094;3.490;2023-04-01T18:33:34;13.93;;;4.40;;
56860;SDS011;42744;51.094;3.490;2023-04-01T18:38:54;14.00;;;5.30;;
56860;SDS011;42744;51.094;3.490;2023-04-01T18:41:30;13.50;;;4.83;;
56860;SDS011;42744;51.094;3.490;2023-04-01T18:49:49;12.00;;;4.97;;
56860;SDS011;42744;51.094;3.490;2023-04-01T18:52:36;14.63;;;5.37;;
56860;SDS011;42744;51.094;3.490;2023-04-01T18:57:49;15.47;;;5.50;;
56860;SDS011;42744;51.094;3.490;2023-04-01T19:03:01;15.03;;;6.00;;
56860;SDS011;42744;51.094;3.490;2023-04-01T19:05:49;14.97;;;5.30;;
56860;SDS011;42744;51.094;3.490;2023-04-01T19:08:28;15.73;;;5.70;;
56860;SDS011;42744;51.094;3.490;2023-04-01T19:19:43;14.83;;;5.47;;
56860;SDS011;42744;51.094;3.490;2023-04-01T19:25:20;14.03;;;4.90;;
56860;SDS011;42744;51.094;3.490;2023-04-01T19:31:01;17.33;;;5.07;;
56860;SDS011;42744;51.094;3.490;2023-04-01T19:36:50;18.13;;;5.23;;
56860;SDS011;42744;51.094;3.490;2023-04-01T19:39:53;13.47;;;4.83;;
56860;SDS011;42744;51.094;3.490;2023-04-01T19:53:37;11.13;;;4.03;;
56860;SDS011;42744;51.094;3.490;2023-04-01T19:56:18;16.87;;;4.67;;
56860;SDS011;42744;51.094;3.490;2023-04-01T20:07:00;14.77;;;4.60;;
56860;SDS011;42744;51.094;3.490;2023-04-01T20:12:21;14.73;;;4.83;;
56860;SDS011;42744;51.094;3.490;2023-04-01T20:17:50;18.13;;;5.10;;
56860;SDS011;42744;51.094;3.490;2023-04-01T20:23:11;21.00;;;5.83;;
56860;SDS011;42744;51.094;3.490;2023-04-01T20:26:12;18.43;;;5.90;;
56860;SDS011;42744;51.094;3.490;2023-04-01T20:36:39;19.97;;;5.83;;
56860;SDS011;42744;51.094;3.490;2023-04-01T20:39:33;20.30;;;7.23;;
56860;SDS011;42744;51.094;3.490;2023-04-01T20:42:27;18.03;;;6.90;;
56860;SDS011;42744;51.094;3.490;2023-04-01T20:48:02;23.80;;;8.47;;
56860;SDS011;42744;51.094;3.490;2023-04-01T20:53:43;18.10;;;6.73;;
56860;SDS011;42744;51.094;3.490;2023-04-01T21:16:30;24.00;;;8.73;;
56860;SDS011;42744;51.094;3.490;2023-04-01T21:26:52;21.80;;;9.00;;
56860;SDS011;42744;51.094;3.490;2023-04-01T21:40:23;26.33;;;9.67;;
56860;SDS011;42744;51.094;3.490;2023-04-01T22:06:14;29.63;;;10.70;;
56860;SDS011;42744;51.094;3.490;2023-04-01T22:11:42;31.07;;;9.50;;
56860;SDS011;42744;51.094;3.490;2023-04-01T22:17:08;28.20;;;10.33;;
56860;SDS011;42744;51.094;3.490;2023-04-01T22:22:45;27.07;;;9.50;;
56860;SDS011;42744;51.094;3.490;2023-04-01T22:27:55;28.77;;;9.37;;
56860;SDS011;42744;51.094;3.490;2023-04-01T22:33:26;27.50;;;9.10;;
56860;SDS011;42744;51.094;3.490;2023-04-01T22:41:37;24.73;;;9.53;;
56860;SDS011;42744;51.094;3.490;2023-04-01T22:50:14;22.83;;;8.20;;
56860;SDS011;42744;51.094;3.490;2023-04-01T22:52:47;19.60;;;8.67;;
56860;SDS011;42744;51.094;3.490;2023-04-01T22:55:43;18.43;;;8.70;;
56860;SDS011;42744;51.094;3.490;2023-04-01T22:58:16;18.67;;;8.80;;
56860;SDS011;42744;51.094;3.490;2023-04-01T23:01:07;23.10;;;8.50;;
56860;SDS011;42744;51.094;3.490;2023-04-01T23:03:47;18.30;;;8.37;;
56860;SDS011;42744;51.094;3.490;2023-04-01T23:06:24;20.70;;;8.73;;
56860;SDS011;42744;51.094;3.490;2023-04-01T23:20:14;21.80;;;9.50;;
56860;SDS011;42744;51.094;3.490;2023-04-01T23:25:39;19.03;;;8.87;;
56860;SDS011;42744;51.094;3.490;2023-04-01T23:28:19;26.83;;;10.33;;
56860;SDS011;42744;51.094;3.490;2023-04-01T23:30:58;27.90;;;9.60;;
56860;SDS011;42744;51.094;3.490;2023-04-01T23:33:28;25.07;;;11.17;;
56860;SDS011;42744;51.094;3.490;2023-04-01T23:36:02;21.13;;;8.97;;
56860;SDS011;42744;51.094;3.490;2023-04-01T23:38:38;22.97;;;10.80;;
56860;SDS011;42744;51.094;3.490;2023-04-01T23:41:15;27.30;;;11.87;;
56860;SDS011;42744;51.094;3.490;2023-04-01T23:44:05;26.33;;;11.23;;
56860;SDS011;42744;51.094;3.490;2023-04-01T23:46:35;24.50;;;10.97;;
56860;SDS011;42744;51.094;3.490;2023-04-01T23:49:04;20.97;;;11.60;;
56860;SDS011;42744;51.094;3.490;2023-04-01T23:51:36;27.97;;;12.20;;
56860;SDS011;42744;51.094;3.490;2023-04-01T23:54:15;22.47;;;10.97;;
56860;SDS011;42744;51.094;3.490;2023-04-01T23:56:45;20.90;;;11.90;;
56860;SDS011;42744;51.094;3.490;2023-04-01T23:59:16;25.63;;;12.50;;
